sensor_id;sensor_type;location;lat;lon;timestamp;pressure;altitude;pressure_sealevel;temperature;humidity
13690;BME280;6917;52.194;9.894;2022-08-04T00:01:20;100263.94;;;21.22;81.52
13690;BME280;6917;52.194;9.894;2022-08-04T00:03:51;100259.97;;;21.23;81.36
13690;BME280;6917;52.194;9.894;2022-08-04T00:08:55;100265.22;;;21.35;81.68
13690;BME280;6917;52.194;9.894;2022-08-04T00:11:29;100265.69;;;21.41;81.17
13690;BME280;6917;52.194;9.894;2022-08-04T00:14:03;100268.47;;;21.48;81.20
13690;BME280;6917;52.194;9.894;2022-08-04T00:16:32;100272.91;;;21.56;80.47
13690;BME280;6917;52.194;9.894;2022-08-04T00:19:03;100272.13;;;21.63;80.53
13690;BME280;6917;52.194;9.894;2022-08-04T00:21:30;100275.75;;;21.71;80.10
13690;BME280;6917;52.194;9.894;2022-08-04T00:24:00;100274.97;;;21.74;79.85
13690;BME280;6917;52.194;9.894;2022-08-04T00:26:26;100262.25;;;21.80;79.91
13690;BME280;6917;52.194;9.894;2022-08-04T00:28:52;100263.44;;;21.72;79.09
13690;BME280;6917;52.194;9.894;2022-08-04T00:31:17;100267.69;;;21.55;79.64
13690;BME280;6917;52.194;9.894;2022-08-04T00:33:47;100269.22;;;21.38;80.47
13690;BME280;6917;52.194;9.894;2022-08-04T00:36:13;100267.88;;;21.18;81.90
13690;BME280;6917;52.194;9.894;2022-08-04T00:38:43;100263.03;;;21.07;82.74
13690;BME280;6917;52.194;9.894;2022-08-04T00:41:24;100268.50;;;20.97;83.32
13690;BME280;6917;52.194;9.894;2022-08-04T00:44:08;100262.03;;;20.78;84.26
13690;BME280;6917;52.194;9.894;2022-08-04T00:49:48;100265.72;;;20.45;85.76
13690;BME280;6917;52.194;9.894;2022-08-04T00:53:07;100266.13;;;20.44;86.07
13690;BME280;6917;52.194;9.894;2022-08-04T01:00:27;100255.44;;;20.49;87.53
13690;BME280;6917;52.194;9.894;2022-08-04T01:03:08;100257.53;;;20.60;86.96
13690;BME280;6917;52.194;9.894;2022-08-04T01:06:01;100249.22;;;20.63;86.57
13690;BME280;6917;52.194;9.894;2022-08-04T01:08:58;100259.81;;;20.50;86.52
13690;BME280;6917;52.194;9.894;2022-08-04T01:12:02;100245.09;;;20.43;86.72
13690;BME280;6917;52.194;9.894;2022-08-04T01:14:38;100254.88;;;20.33;87.19
13690;BME280;6917;52.194;9.894;2022-08-04T01:17:25;100248.47;;;20.26;87.77
13690;BME280;6917;52.194;9.894;2022-08-04T01:30:36;100256.31;;;20.16;84.90
13690;BME280;6917;52.194;9.894;2022-08-04T01:33:08;100255.03;;;20.10;84.93
13690;BME280;6917;52.194;9.894;2022-08-04T01:35:46;100253.88;;;20.11;85.46
13690;BME280;6917;52.194;9.894;2022-08-04T01:38:32;100251.00;;;20.01;85.63
13690;BME280;6917;52.194;9.894;2022-08-04T01:41:03;100254.00;;;19.85;86.74
13690;BME280;6917;52.194;9.894;2022-08-04T01:43:32;100251.47;;;19.73;87.97
13690;BME280;6917;52.194;9.894;2022-08-04T01:46:03;100266.03;;;19.66;89.10
13690;BME280;6917;52.194;9.894;2022-08-04T01:48:29;100251.31;;;19.62;90.23
13690;BME280;6917;52.194;9.894;2022-08-04T01:51:03;100246.53;;;19.59;90.65
13690;BME280;6917;52.194;9.894;2022-08-04T01:53:31;100243.22;;;19.50;91.48
13690;BME280;6917;52.194;9.894;2022-08-04T01:55:57;100240.00;;;19.44;92.23
13690;BME280;6917;52.194;9.894;2022-08-04T01:58:23;100234.06;;;19.46;92.58
13690;BME280;6917;52.194;9.894;2022-08-04T02:00:58;100238.09;;;19.52;92.72
13690;BME280;6917;52.194;9.894;2022-08-04T02:03:27;100232.19;;;19.53;92.68
13690;BME280;6917;52.194;9.894;2022-08-04T02:05:58;100240.66;;;19.64;92.46
13690;BME280;6917;52.194;9.894;2022-08-04T02:08:42;100237.22;;;19.74;92.60
13690;BME280;6917;52.194;9.894;2022-08-04T02:11:15;100236.50;;;19.81;92.48
13690;BME280;6917;52.194;9.894;2022-08-04T02:16:28;100238.44;;;19.77;91.48
13690;BME280;6917;52.194;9.894;2022-08-04T02:21:30;100236.28;;;19.63;91.84
13690;BME280;6917;52.194;9.894;2022-08-04T02:24:00;100241.25;;;19.50;92.85
13690;BME280;6917;52.194;9.894;2022-08-04T02:26:28;100240.06;;;19.51;93.57
13690;BME280;6917;52.194;9.894;2022-08-04T02:29:12;100229.31;;;19.46;93.56
13690;BME280;6917;52.194;9.894;2022-08-04T02:32:02;100234.50;;;19.48;94.03
13690;BME280;6917;52.194;9.894;2022-08-04T02:34:45;100233.81;;;19.54;94.75
13690;BME280;6917;52.194;9.894;2022-08-04T02:37:16;100230.88;;;19.44;93.70
13690;BME280;6917;52.194;9.894;2022-08-04T02:39:43;100224.06;;;19.38;94.09
13690;BME280;6917;52.194;9.894;2022-08-04T02:42:11;100222.00;;;19.31;94.49
13690;BME280;6917;52.194;9.894;2022-08-04T02:44:38;100220.69;;;19.21;94.88
13690;BME280;6917;52.194;9.894;2022-08-04T02:47:05;100223.03;;;19.19;95.08
13690;BME280;6917;52.194;9.894;2022-08-04T02:49:35;100224.53;;;19.13;95.99
13690;BME280;6917;52.194;9.894;2022-08-04T02:52:01;100213.94;;;19.19;96.10
13690;BME280;6917;52.194;9.894;2022-08-04T02:54:27;100215.94;;;19.22;96.01
13690;BME280;6917;52.194;9.894;2022-08-04T02:56:56;100219.56;;;19.26;95.98
13690;BME280;6917;52.194;9.894;2022-08-04T02:59:28;100226.28;;;19.25;96.06
13690;BME280;6917;52.194;9.894;2022-08-04T03:01:55;100224.81;;;19.35;97.07
13690;BME280;6917;52.194;9.894;2022-08-04T03:09:57;100227.59;;;19.35;94.17
13690;BME280;6917;52.194;9.894;2022-08-04T03:16:02;100221.47;;;19.22;94.30
13690;BME280;6917;52.194;9.894;2022-08-04T03:30:03;100221.06;;;18.93;98.14
13690;BME280;6917;52.194;9.894;2022-08-04T03:50:49;100220.47;;;18.54;100.00
13690;BME280;6917;52.194;9.894;2022-08-04T03:56:42;100216.19;;;18.60;100.00
13690;BME280;6917;52.194;9.894;2022-08-04T04:02:31;100220.63;;;18.65;100.00
13690;BME280;6917;52.194;9.894;2022-08-04T04:21:26;100223.03;;;19.19;98.91
13690;BME280;6917;52.194;9.894;2022-08-04T04:24:45;100229.88;;;19.25;98.60
13690;BME280;6917;52.194;9.894;2022-08-04T04:26:56;100225.97;;;19.30;98.35
13690;BME280;6917;52.194;9.894;2022-08-04T04:32:22;100232.84;;;19.43;98.08
13690;BME280;6917;52.194;9.894;2022-08-04T04:48:57;100235.22;;;19.71;95.57
13690;BME280;6917;52.194;9.894;2022-08-04T04:51:36;100240.13;;;19.85;95.52
13690;BME280;6917;52.194;9.894;2022-08-04T04:54:10;100231.97;;;19.99;94.80
13690;BME280;6917;52.194;9.894;2022-08-04T04:59:32;100234.81;;;20.10;92.51
13690;BME280;6917;52.194;9.894;2022-08-04T05:16:08;100235.41;;;20.26;91.84
13690;BME280;6917;52.194;9.894;2022-08-04T05:18:37;100229.06;;;20.26;90.74
13690;BME280;6917;52.194;9.894;2022-08-04T05:21:32;100235.03;;;20.28;89.57
13690;BME280;6917;52.194;9.894;2022-08-04T05:24:03;100229.53;;;20.35;89.63
13690;BME280;6917;52.194;9.894;2022-08-04T05:26:34;100232.72;;;20.37;89.91
13690;BME280;6917;52.194;9.894;2022-08-04T05:29:05;100236.38;;;20.44;90.04
13690;BME280;6917;52.194;9.894;2022-08-04T05:31:35;100242.78;;;20.52;89.71
13690;BME280;6917;52.194;9.894;2022-08-04T05:34:15;100230.97;;;20.59;89.29
13690;BME280;6917;52.194;9.894;2022-08-04T05:36:46;100229.03;;;20.66;88.66
13690;BME280;6917;52.194;9.894;2022-08-04T05:39:18;100229.88;;;20.74;89.48
13690;BME280;6917;52.194;9.894;2022-08-04T05:41:44;100229.59;;;20.90;90.73
13690;BME280;6917;52.194;9.894;2022-08-04T05:44:10;100226.50;;;20.98;90.42
13690;BME280;6917;52.194;9.894;2022-08-04T05:46:36;100221.81;;;21.13;87.61
13690;BME280;6917;52.194;9.894;2022-08-04T05:49:02;100231.78;;;21.21;87.05
13690;BME280;6917;52.194;9.894;2022-08-04T05:51:29;100219.97;;;21.35;87.25
13690;BME280;6917;52.194;9.894;2022-08-04T05:53:56;100227.63;;;21.59;86.74
13690;BME280;6917;52.194;9.894;2022-08-04T05:56:23;100230.47;;;21.74;84.77
13690;BME280;6917;52.194;9.894;2022-08-04T05:58:50;100228.13;;;21.90;84.28
13690;BME280;6917;52.194;9.894;2022-08-04T06:01:17;100225.72;;;21.95;83.07
13690;BME280;6917;52.194;9.894;2022-08-04T06:03:44;100216.28;;;22.14;83.37
13690;BME280;6917;52.194;9.894;2022-08-04T06:06:11;100218.66;;;22.23;80.87
13690;BME280;6917;52.194;9.894;2022-08-04T06:08:38;100219.84;;;22.22;80.75
13690;BME280;6917;52.194;9.894;2022-08-04T06:11:05;100219.06;;;22.25;80.49
13690;BME280;6917;52.194;9.894;2022-08-04T06:13:49;100215.09;;;22.30;80.18
13690;BME280;6917;52.194;9.894;2022-08-04T06:16:17;100210.72;;;22.32;78.63
13690;BME280;6917;52.194;9.894;2022-08-04T06:18:44;100217.47;;;22.38;75.85
13690;BME280;6917;52.194;9.894;2022-08-04T06:21:13;100207.13;;;22.64;74.49
13690;BME280;6917;52.194;9.894;2022-08-04T06:23:41;100209.91;;;22.85;75.15
13690;BME280;6917;52.194;9.894;2022-08-04T06:26:09;100214.31;;;23.00;73.47
13690;BME280;6917;52.194;9.894;2022-08-04T06:28:36;100218.59;;;23.23;71.57
13690;BME280;6917;52.194;9.894;2022-08-04T06:31:02;100216.53;;;23.41;70.51
13690;BME280;6917;52.194;9.894;2022-08-04T06:33:30;100208.53;;;23.57;68.96
13690;BME280;6917;52.194;9.894;2022-08-04T06:36:02;100209.66;;;23.78;66.79
13690;BME280;6917;52.194;9.894;2022-08-04T06:38:30;100217.88;;;24.02;64.16
13690;BME280;6917;52.194;9.894;2022-08-04T06:40:56;100212.59;;;24.15;63.67
13690;BME280;6917;52.194;9.894;2022-08-04T06:43:22;100208.97;;;24.22;62.44
13690;BME280;6917;52.194;9.894;2022-08-04T06:45:48;100203.75;;;24.31;63.04
13690;BME280;6917;52.194;9.894;2022-08-04T06:48:16;100208.06;;;24.39;61.74
13690;BME280;6917;52.194;9.894;2022-08-04T06:50:43;100211.97;;;24.49;61.43
13690;BME280;6917;52.194;9.894;2022-08-04T06:53:11;100202.78;;;24.52;61.06
13690;BME280;6917;52.194;9.894;2022-08-04T06:55:38;100209.91;;;24.56;62.18
13690;BME280;6917;52.194;9.894;2022-08-04T06:58:05;100207.47;;;24.62;61.28
13690;BME280;6917;52.194;9.894;2022-08-04T07:00:32;100196.59;;;24.75;62.86
13690;BME280;6917;52.194;9.894;2022-08-04T07:02:58;100192.91;;;24.81;62.68
13690;BME280;6917;52.194;9.894;2022-08-04T07:05:24;100197.16;;;24.97;62.54
13690;BME280;6917;52.194;9.894;2022-08-04T07:07:50;100191.44;;;25.11;60.55
13690;BME280;6917;52.194;9.894;2022-08-04T07:10:15;100196.53;;;25.19;60.83
13690;BME280;6917;52.194;9.894;2022-08-04T07:12:42;100193.69;;;25.23;59.86
13690;BME280;6917;52.194;9.894;2022-08-04T07:15:09;100182.41;;;25.34;59.51
13690;BME280;6917;52.194;9.894;2022-08-04T07:17:35;100193.91;;;25.39;59.46
13690;BME280;6917;52.194;9.894;2022-08-04T07:20:04;100182.91;;;25.56;58.48
13690;BME280;6917;52.194;9.894;2022-08-04T07:22:30;100185.13;;;25.71;58.36
13690;BME280;6917;52.194;9.894;2022-08-04T07:24:57;100186.06;;;25.88;58.29
13690;BME280;6917;52.194;9.894;2022-08-04T07:27:23;100177.72;;;26.12;56.47
13690;BME280;6917;52.194;9.894;2022-08-04T07:29:49;100184.38;;;26.21;55.61
13690;BME280;6917;52.194;9.894;2022-08-04T07:32:16;100170.38;;;26.48;55.32
13690;BME280;6917;52.194;9.894;2022-08-04T07:34:42;100179.97;;;26.71;53.64
13690;BME280;6917;52.194;9.894;2022-08-04T07:37:08;100174.66;;;26.76;53.52
13690;BME280;6917;52.194;9.894;2022-08-04T07:39:34;100169.19;;;26.89;52.71
13690;BME280;6917;52.194;9.894;2022-08-04T07:42:01;100169.69;;;27.07;53.21
13690;BME280;6917;52.194;9.894;2022-08-04T07:44:30;100166.63;;;27.21;52.87
13690;BME280;6917;52.194;9.894;2022-08-04T07:46:57;100165.81;;;27.41;52.01
13690;BME280;6917;52.194;9.894;2022-08-04T07:49:23;100163.03;;;27.57;51.46
13690;BME280;6917;52.194;9.894;2022-08-04T07:51:50;100157.66;;;27.66;51.06
13690;BME280;6917;52.194;9.894;2022-08-04T07:54:17;100161.84;;;27.94;50.29
13690;BME280;6917;52.194;9.894;2022-08-04T07:56:42;100157.97;;;28.04;50.14
13690;BME280;6917;52.194;9.894;2022-08-04T07:59:08;100160.78;;;28.21;49.68
13690;BME280;6917;52.194;9.894;2022-08-04T08:01:34;100150.09;;;28.32;47.43
13690;BME280;6917;52.194;9.894;2022-08-04T08:04:00;100151.94;;;28.55;46.22
13690;BME280;6917;52.194;9.894;2022-08-04T08:06:27;100147.59;;;28.66;46.24
13690;BME280;6917;52.194;9.894;2022-08-04T08:08:54;100145.72;;;28.76;45.89
13690;BME280;6917;52.194;9.894;2022-08-04T08:11:20;100137.44;;;28.85;46.64
13690;BME280;6917;52.194;9.894;2022-08-04T08:13:45;100141.47;;;29.00;46.40
13690;BME280;6917;52.194;9.894;2022-08-04T08:16:11;100138.81;;;29.10;44.61
13690;BME280;6917;52.194;9.894;2022-08-04T08:18:37;100131.97;;;29.36;43.46
13690;BME280;6917;52.194;9.894;2022-08-04T08:21:03;100132.03;;;29.61;42.03
13690;BME280;6917;52.194;9.894;2022-08-04T08:23:30;100120.56;;;29.81;41.77
13690;BME280;6917;52.194;9.894;2022-08-04T08:25:59;100121.44;;;29.91;42.29
13690;BME280;6917;52.194;9.894;2022-08-04T08:28:25;100121.22;;;29.98;40.80
13690;BME280;6917;52.194;9.894;2022-08-04T08:30:50;100125.28;;;29.97;40.77
13690;BME280;6917;52.194;9.894;2022-08-04T08:33:16;100121.44;;;30.04;40.07
13690;BME280;6917;52.194;9.894;2022-08-04T08:38:20;100109.25;;;30.32;40.26
13690;BME280;6917;52.194;9.894;2022-08-04T08:40:52;100116.88;;;30.44;41.07
13690;BME280;6917;52.194;9.894;2022-08-04T08:49:06;100100.03;;;30.88;39.64
13690;BME280;6917;52.194;9.894;2022-08-04T09:00:44;100101.72;;;31.29;37.70
13690;BME280;6917;52.194;9.894;2022-08-04T09:09:05;100095.66;;;31.71;38.20
13690;BME280;6917;52.194;9.894;2022-08-04T09:17:29;100104.44;;;32.13;37.06
13690;BME280;6917;52.194;9.894;2022-08-04T09:20:02;100090.94;;;32.17;35.93
13690;BME280;6917;52.194;9.894;2022-08-04T09:22:42;100094.59;;;32.36;35.41
13690;BME280;6917;52.194;9.894;2022-08-04T09:25:30;100092.88;;;32.30;35.14
13690;BME280;6917;52.194;9.894;2022-08-04T09:28:01;100083.13;;;32.40;34.64
13690;BME280;6917;52.194;9.894;2022-08-04T09:30:38;100078.09;;;32.44;35.24
13690;BME280;6917;52.194;9.894;2022-08-04T09:33:17;100084.53;;;32.53;35.16
13690;BME280;6917;52.194;9.894;2022-08-04T09:35:51;100082.66;;;32.60;34.76
13690;BME280;6917;52.194;9.894;2022-08-04T09:43:48;100081.84;;;32.68;34.09
13690;BME280;6917;52.194;9.894;2022-08-04T09:46:32;100081.72;;;32.72;34.84
13690;BME280;6917;52.194;9.894;2022-08-04T09:49:05;100070.09;;;32.70;33.72
13690;BME280;6917;52.194;9.894;2022-08-04T09:54:22;100064.09;;;32.77;34.25
13690;BME280;6917;52.194;9.894;2022-08-04T09:56:56;100064.91;;;32.87;35.38
13690;BME280;6917;52.194;9.894;2022-08-04T09:59:27;100066.78;;;32.90;34.01
13690;BME280;6917;52.194;9.894;2022-08-04T10:01:56;100060.66;;;32.82;34.47
13690;BME280;6917;52.194;9.894;2022-08-04T10:04:23;100064.75;;;32.81;34.91
13690;BME280;6917;52.194;9.894;2022-08-04T10:07:28;100056.56;;;32.92;34.58
13690;BME280;6917;52.194;9.894;2022-08-04T10:15:19;100050.16;;;33.34;33.88
13690;BME280;6917;52.194;9.894;2022-08-04T10:18:01;100035.31;;;33.48;33.27
13690;BME280;6917;52.194;9.894;2022-08-04T10:20:45;100044.88;;;33.60;34.07
13690;BME280;6917;52.194;9.894;2022-08-04T10:23:41;100039.13;;;33.69;33.54
13690;BME280;6917;52.194;9.894;2022-08-04T10:29:43;100028.09;;;34.04;32.79
13690;BME280;6917;52.194;9.894;2022-08-04T10:35:21;100032.84;;;33.98;32.59
13690;BME280;6917;52.194;9.894;2022-08-04T10:40:45;100030.44;;;34.06;34.49
13690;BME280;6917;52.194;9.894;2022-08-04T10:48:43;100030.84;;;34.13;33.37
13690;BME280;6917;52.194;9.894;2022-08-04T10:53:58;100015.19;;;34.03;32.89
13690;BME280;6917;52.194;9.894;2022-08-04T10:59:33;100017.69;;;34.25;32.08
13690;BME280;6917;52.194;9.894;2022-08-04T11:02:00;100019.41;;;34.08;31.83
13690;BME280;6917;52.194;9.894;2022-08-04T11:07:04;100016.16;;;34.00;32.82
13690;BME280;6917;52.194;9.894;2022-08-04T11:09:32;100006.47;;;34.07;32.57
13690;BME280;6917;52.194;9.894;2022-08-04T11:12:18;100009.44;;;34.12;32.77
13690;BME280;6917;52.194;9.894;2022-08-04T11:14:55;100009.22;;;34.01;33.17
13690;BME280;6917;52.194;9.894;2022-08-04T11:17:33;99999.69;;;33.89;33.88
13690;BME280;6917;52.194;9.894;2022-08-04T11:20:34;100010.53;;;34.15;33.50
13690;BME280;6917;52.194;9.894;2022-08-04T11:23:12;99995.19;;;34.21;33.07
13690;BME280;6917;52.194;9.894;2022-08-04T11:32:27;99995.16;;;34.45;32.74
13690;BME280;6917;52.194;9.894;2022-08-04T11:34:59;99985.09;;;34.59;32.43
13690;BME280;6917;52.194;9.894;2022-08-04T11:37:41;99995.47;;;34.77;32.09
13690;BME280;6917;52.194;9.894;2022-08-04T11:40:19;100002.91;;;34.74;33.27
13690;BME280;6917;52.194;9.894;2022-08-04T11:43:03;99991.09;;;34.91;33.39
13690;BME280;6917;52.194;9.894;2022-08-04T11:45:33;99991.97;;;34.97;32.36
13690;BME280;6917;52.194;9.894;2022-08-04T11:48:15;99995.22;;;34.89;32.71
13690;BME280;6917;52.194;9.894;2022-08-04T11:50:49;99996.47;;;34.88;32.76
13690;BME280;6917;52.194;9.894;2022-08-04T11:53:18;99985.69;;;34.78;31.93
13690;BME280;6917;52.194;9.894;2022-08-04T11:55:49;100000.06;;;34.59;31.73
13690;BME280;6917;52.194;9.894;2022-08-04T11:58:17;99997.72;;;34.43;32.68
13690;BME280;6917;52.194;9.894;2022-08-04T12:03:36;99990.84;;;34.11;32.51
13690;BME280;6917;52.194;9.894;2022-08-04T12:11:49;99987.44;;;34.22;32.49
13690;BME280;6917;52.194;9.894;2022-08-04T12:14:12;99996.69;;;34.31;32.67
13690;BME280;6917;52.194;9.894;2022-08-04T12:17:03;99989.38;;;34.40;31.77
13690;BME280;6917;52.194;9.894;2022-08-04T12:19:35;99998.09;;;34.51;30.80
13690;BME280;6917;52.194;9.894;2022-08-04T12:22:07;99987.94;;;34.44;31.16
13690;BME280;6917;52.194;9.894;2022-08-04T12:25:07;99988.88;;;34.41;31.89
13690;BME280;6917;52.194;9.894;2022-08-04T12:27:59;99984.50;;;34.55;32.56
13690;BME280;6917;52.194;9.894;2022-08-04T12:30:28;99987.81;;;34.68;31.25
13690;BME280;6917;52.194;9.894;2022-08-04T12:33:06;99977.75;;;34.82;31.63
13690;BME280;6917;52.194;9.894;2022-08-04T12:35:44;99979.25;;;34.92;30.71
13690;BME280;6917;52.194;9.894;2022-08-04T12:38:12;99983.44;;;34.97;30.97
13690;BME280;6917;52.194;9.894;2022-08-04T12:40:50;99975.19;;;35.13;31.40
13690;BME280;6917;52.194;9.894;2022-08-04T12:43:23;99972.44;;;35.19;31.08
13690;BME280;6917;52.194;9.894;2022-08-04T12:45:56;99971.16;;;35.20;31.01
13690;BME280;6917;52.194;9.894;2022-08-04T12:48:23;99978.66;;;35.53;30.46
13690;BME280;6917;52.194;9.894;2022-08-04T12:50:51;99970.22;;;35.43;29.79
13690;BME280;6917;52.194;9.894;2022-08-04T12:53:18;99965.28;;;35.59;31.16
13690;BME280;6917;52.194;9.894;2022-08-04T12:55:47;99966.88;;;35.60;30.56
13690;BME280;6917;52.194;9.894;2022-08-04T12:58:22;99956.16;;;35.34;31.03
13690;BME280;6917;52.194;9.894;2022-08-04T13:01:01;99967.19;;;34.97;30.68
13690;BME280;6917;52.194;9.894;2022-08-04T13:03:35;99964.44;;;35.03;30.84
13690;BME280;6917;52.194;9.894;2022-08-04T13:06:01;99956.81;;;34.94;30.82
13690;BME280;6917;52.194;9.894;2022-08-04T13:08:27;99960.06;;;34.87;30.62
13690;BME280;6917;52.194;9.894;2022-08-04T13:10:56;99955.44;;;35.04;30.61
13690;BME280;6917;52.194;9.894;2022-08-04T13:13:27;99956.53;;;35.27;30.58
13690;BME280;6917;52.194;9.894;2022-08-04T13:16:00;99949.66;;;35.48;30.24
13690;BME280;6917;52.194;9.894;2022-08-04T13:18:28;99947.44;;;35.58;30.07
13690;BME280;6917;52.194;9.894;2022-08-04T13:20:54;99951.50;;;35.72;30.31
13690;BME280;6917;52.194;9.894;2022-08-04T13:23:24;99949.81;;;35.60;30.61
13690;BME280;6917;52.194;9.894;2022-08-04T13:25:52;99946.06;;;35.89;30.29
13690;BME280;6917;52.194;9.894;2022-08-04T13:28:21;99943.56;;;35.96;30.17
13690;BME280;6917;52.194;9.894;2022-08-04T13:30:52;99940.50;;;35.80;30.53
13690;BME280;6917;52.194;9.894;2022-08-04T13:33:18;99943.44;;;35.85;29.82
13690;BME280;6917;52.194;9.894;2022-08-04T13:35:45;99936.53;;;35.92;30.51
13690;BME280;6917;52.194;9.894;2022-08-04T13:38:13;99929.13;;;35.80;30.12
13690;BME280;6917;52.194;9.894;2022-08-04T13:40:42;99925.84;;;36.07;31.52
13690;BME280;6917;52.194;9.894;2022-08-04T13:43:09;99935.41;;;36.04;29.54
13690;BME280;6917;52.194;9.894;2022-08-04T13:45:39;99931.94;;;36.20;30.53
13690;BME280;6917;52.194;9.894;2022-08-04T13:48:06;99920.50;;;36.15;29.60
13690;BME280;6917;52.194;9.894;2022-08-04T13:50:32;99922.16;;;36.27;29.81
13690;BME280;6917;52.194;9.894;2022-08-04T13:53:00;99913.78;;;36.38;30.19
13690;BME280;6917;52.194;9.894;2022-08-04T13:58:23;99908.91;;;36.44;29.16
13690;BME280;6917;52.194;9.894;2022-08-04T14:01:02;99909.09;;;36.15;30.02
13690;BME280;6917;52.194;9.894;2022-08-04T14:03:35;99910.28;;;35.82;30.83
13690;BME280;6917;52.194;9.894;2022-08-04T14:08:35;99904.47;;;35.15;31.01
13690;BME280;6917;52.194;9.894;2022-08-04T14:11:07;99911.16;;;34.98;31.06
13690;BME280;6917;52.194;9.894;2022-08-04T14:13:33;99906.19;;;34.93;31.65
13690;BME280;6917;52.194;9.894;2022-08-04T14:15:59;99902.78;;;34.74;31.54
13690;BME280;6917;52.194;9.894;2022-08-04T14:18:27;99882.25;;;34.49;31.71
13690;BME280;6917;52.194;9.894;2022-08-04T14:23:25;99892.38;;;34.26;33.15
13690;BME280;6917;52.194;9.894;2022-08-04T14:25:51;99892.56;;;34.08;32.75
13690;BME280;6917;52.194;9.894;2022-08-04T14:28:30;99897.44;;;33.93;32.42
13690;BME280;6917;52.194;9.894;2022-08-04T14:31:16;99888.84;;;33.87;32.87
13690;BME280;6917;52.194;9.894;2022-08-04T14:33:43;99895.00;;;33.86;34.00
13690;BME280;6917;52.194;9.894;2022-08-04T14:36:10;99902.03;;;33.66;35.99
13690;BME280;6917;52.194;9.894;2022-08-04T14:38:56;99895.41;;;33.12;41.49
13690;BME280;6917;52.194;9.894;2022-08-04T14:41:28;99895.19;;;31.67;47.37
13690;BME280;6917;52.194;9.894;2022-08-04T14:43:56;99876.19;;;30.82;52.18
13690;BME280;6917;52.194;9.894;2022-08-04T14:46:23;99867.34;;;30.18;60.05
13690;BME280;6917;52.194;9.894;2022-08-04T14:51:36;99865.75;;;28.75;73.22
13690;BME280;6917;52.194;9.894;2022-08-04T14:54:03;99860.56;;;28.61;75.00
13690;BME280;6917;52.194;9.894;2022-08-04T14:56:29;99861.03;;;28.72;78.72
13690;BME280;6917;52.194;9.894;2022-08-04T14:59:03;99870.28;;;29.11;77.65
13690;BME280;6917;52.194;9.894;2022-08-04T15:01:29;99870.03;;;29.65;77.28
13690;BME280;6917;52.194;9.894;2022-08-04T15:03:55;99885.16;;;30.37;72.47
13690;BME280;6917;52.194;9.894;2022-08-04T15:06:24;99888.25;;;30.92;62.52
13690;BME280;6917;52.194;9.894;2022-08-04T15:08:51;99902.34;;;31.23;63.93
13690;BME280;6917;52.194;9.894;2022-08-04T15:11:17;99893.06;;;31.13;66.06
13690;BME280;6917;52.194;9.894;2022-08-04T15:13:42;99892.84;;;31.07;67.86
13690;BME280;6917;52.194;9.894;2022-08-04T15:16:10;99888.56;;;30.94;69.98
13690;BME280;6917;52.194;9.894;2022-08-04T15:18:36;99889.66;;;30.87;71.42
13690;BME280;6917;52.194;9.894;2022-08-04T15:21:01;99894.16;;;30.75;71.12
13690;BME280;6917;52.194;9.894;2022-08-04T15:23:27;99897.59;;;30.70;72.08
13690;BME280;6917;52.194;9.894;2022-08-04T15:25:56;99894.53;;;30.87;72.89
13690;BME280;6917;52.194;9.894;2022-08-04T15:28:25;99895.38;;;31.05;70.93
13690;BME280;6917;52.194;9.894;2022-08-04T15:30:53;99894.03;;;31.19;70.38
13690;BME280;6917;52.194;9.894;2022-08-04T15:33:19;99894.66;;;31.23;69.72
13690;BME280;6917;52.194;9.894;2022-08-04T15:35:54;99893.19;;;31.09;70.73
13690;BME280;6917;52.194;9.894;2022-08-04T15:38:38;99899.75;;;30.97;71.25
13690;BME280;6917;52.194;9.894;2022-08-04T15:41:08;99899.53;;;30.83;70.57
13690;BME280;6917;52.194;9.894;2022-08-04T15:49:21;99913.84;;;30.66;59.53
13690;BME280;6917;52.194;9.894;2022-08-04T15:51:58;99926.03;;;30.85;61.92
13690;BME280;6917;52.194;9.894;2022-08-04T15:54:24;99936.38;;;30.88;64.98
13690;BME280;6917;52.194;9.894;2022-08-04T15:56:50;99934.41;;;30.98;54.28
13690;BME280;6917;52.194;9.894;2022-08-04T16:02:39;99957.22;;;31.71;40.38
13690;BME280;6917;52.194;9.894;2022-08-04T16:08:09;99978.41;;;30.95;47.50
13690;BME280;6917;52.194;9.894;2022-08-04T16:10:45;99978.25;;;30.46;49.71
13690;BME280;6917;52.194;9.894;2022-08-04T16:13:16;99987.66;;;30.08;50.92
13690;BME280;6917;52.194;9.894;2022-08-04T16:15:56;99984.56;;;29.81;51.86
13690;BME280;6917;52.194;9.894;2022-08-04T16:20:50;99988.13;;;29.47;52.28
13690;BME280;6917;52.194;9.894;2022-08-04T16:23:55;99993.63;;;29.25;52.80
13690;BME280;6917;52.194;9.894;2022-08-04T16:37:05;100012.66;;;28.37;55.70
13690;BME280;6917;52.194;9.894;2022-08-04T16:39:32;100021.28;;;28.30;56.42
13690;BME280;6917;52.194;9.894;2022-08-04T16:41:58;100015.50;;;28.21;56.10
13690;BME280;6917;52.194;9.894;2022-08-04T16:44:35;100035.16;;;28.21;55.98
13690;BME280;6917;52.194;9.894;2022-08-04T16:47:04;100040.78;;;28.21;55.95
13690;BME280;6917;52.194;9.894;2022-08-04T16:49:31;100041.41;;;28.12;55.67
13690;BME280;6917;52.194;9.894;2022-08-04T16:52:01;100044.75;;;28.07;55.88
13690;BME280;6917;52.194;9.894;2022-08-04T16:54:31;100046.50;;;28.01;55.90
13690;BME280;6917;52.194;9.894;2022-08-04T16:57:00;100060.28;;;27.96;56.61
13690;BME280;6917;52.194;9.894;2022-08-04T16:59:31;100062.47;;;27.88;57.00
13690;BME280;6917;52.194;9.894;2022-08-04T17:01:57;100065.72;;;27.86;56.83
13690;BME280;6917;52.194;9.894;2022-08-04T17:04:30;100063.69;;;27.87;57.03
13690;BME280;6917;52.194;9.894;2022-08-04T17:07:01;100062.38;;;27.92;56.44
13690;BME280;6917;52.194;9.894;2022-08-04T17:09:28;100067.13;;;27.95;55.15
13690;BME280;6917;52.194;9.894;2022-08-04T17:11:54;100073.00;;;28.00;55.36
13690;BME280;6917;52.194;9.894;2022-08-04T17:14:21;100064.91;;;28.19;54.60
13690;BME280;6917;52.194;9.894;2022-08-04T17:16:47;100067.28;;;28.20;53.94
13690;BME280;6917;52.194;9.894;2022-08-04T17:19:12;100066.78;;;28.09;53.49
13690;BME280;6917;52.194;9.894;2022-08-04T17:21:38;100062.75;;;28.26;52.96
13690;BME280;6917;52.194;9.894;2022-08-04T17:24:04;100059.78;;;28.46;52.99